Time;durP1;ratioP1;P1;durP2;ratioP2;P2;SDS_P1;SDS_P2;PMS_P1;PMS_P2;Temp;Humidity;BMP_temperature;BMP_pressure;BME280_temperature;BME280_humidity;BME280_pressure;Samples;Min_cycle;Max_cycle;Signal;HPM_P1;HPM_P2
2021/03/15 00:00:46;;;;;;;38.42;21.75;;;-0.80;99.90;;;;;;4852254;29;20432;-96
2021/03/15 00:03:17;;;;;;;36.60;22.03;;;-0.80;99.90;;;;;;4851412;29;20454;-96
2021/03/15 00:05:56;;;;;;;38.83;22.10;;;-0.80;99.90;;;;;;4852225;29;20500;-96
2021/03/15 00:08:38;;;;;;;34.30;19.85;;;-0.80;99.90;;;;;;4850519;29;20536;-96
2021/03/15 00:11:44;;;;;;;;;;;;;;;;;;;;;
2021/03/15 00:14:37;;;;;;;29.52;17.30;;;-0.80;99.90;;;;;;4843947;29;20435;-96
2021/03/15 00:17:05;;;;;;;36.53;22.67;;;-0.80;99.90;;;;;;4844225;29;20444;-96
2021/03/15 00:19:32;;;;;;;34.07;21.87;;;-0.80;99.90;;;;;;4845383;29;20471;-95
2021/03/15 00:22:02;;;;;;;37.47;21.17;;;-0.90;99.90;;;;;;4844293;29;20459;-95
2021/03/15 00:24:29;;;;;;;44.55;24.30;;;-1.00;99.90;;;;;;4844374;29;20446;-95
2021/03/15 00:26:58;;;;;;;29.98;17.13;;;-1.00;99.90;;;;;;4844690;29;21057;-96
2021/03/15 00:29:27;;;;;;;17.65;10.52;;;-0.90;99.90;;;;;;4845783;29;20444;-95
2021/03/15 00:31:53;;;;;;;34.95;22.17;;;-0.90;99.90;;;;;;4887264;29;20848;-95
2021/03/15 00:34:23;;;;;;;44.08;26.23;;;-0.90;99.90;;;;;;4923886;29;20432;-96
2021/03/15 00:36:56;;;;;;;39.42;20.50;;;-0.90;99.90;;;;;;4927830;29;20431;-96
2021/03/15 00:39:25;;;;;;;26.27;15.45;;;-0.90;99.90;;;;;;4914311;29;20427;-96
2021/03/15 00:41:54;;;;;;;15.90;8.45;;;-0.90;99.90;;;;;;4912342;29;20427;-96
2021/03/15 00:44:54;;;;;;;;;;;;;;;;;;;;;
2021/03/15 00:47:54;;;;;;;33.83;18.88;;;-0.90;99.90;;;;;;4907259;29;20457;-96
2021/03/15 00:50:41;;;;;;;;;;;;;;;;;;;;;
2021/03/15 00:54:01;;;;;;;18.37;9.43;;;-0.90;99.90;;;;;;4910243;29;20398;-96
2021/03/15 00:56:57;;;;;;;35.60;19.35;;;-0.80;99.90;;;;;;4855517;29;20442;-96
2021/03/15 01:03:24;;;;;;;43.90;21.03;;;-0.80;99.90;;;;;;4898238;29;20506;-96
2021/03/15 01:10:39;;;;;;;;;;;;;;;;;;;;;
2021/03/15 01:14:01;;;;;;;34.22;18.85;;;-0.80;99.90;;;;;;4761361;30;20466;-96
2021/03/15 01:20:38;;;;;;;34.65;18.40;;;-0.80;99.90;;;;;;4694186;30;20474;-96
2021/03/15 01:24:19;;;;;;;;;;;;;;;;;;;;;
2021/03/15 01:26:42;;;;;;;31.45;17.65;;;-0.70;99.90;;;;;;4658570;30;20460;-96
2021/03/15 01:29:11;;;;;;;27.83;13.27;;;-0.70;99.90;;;;;;4671770;30;20433;-96
2021/03/15 01:31:42;;;;;;;36.20;20.38;;;-0.80;99.90;;;;;;4670792;30;20467;-96
2021/03/15 01:34:08;;;;;;;31.98;16.27;;;-0.80;99.90;;;;;;4674686;30;20433;-96
2021/03/15 01:36:51;;;;;;;15.23;8.77;;;-0.80;99.90;;;;;;4668040;30;20488;-96
2021/03/15 01:39:58;;;;;;;24.20;13.88;;;-0.80;99.90;;;;;;4660964;30;20468;-96
2021/03/15 01:42:30;;;;;;;37.35;21.50;;;-0.80;99.90;;;;;;4638814;30;21143;-96
2021/03/15 01:45:37;;;;;;;32.65;18.67;;;-0.70;99.90;;;;;;4669568;30;20464;-96
2021/03/15 01:48:38;;;;;;;27.38;15.45;;;-0.70;99.90;;;;;;4623662;31;20436;-96
2021/03/15 01:51:30;;;;;;;25.95;14.82;;;-0.80;99.90;;;;;;4668916;30;20529;-96
2021/03/15 01:58:05;;;;;;;27.30;15.68;;;-0.80;99.90;;;;;;4726601;30;20484;-96
2021/03/15 02:01:26;;;;;;;31.37;19.63;;;-0.70;99.90;;;;;;4697701;30;20443;-95
2021/03/15 02:03:57;;;;;;;25.92;15.27;;;-0.70;99.90;;;;;;4868203;23;20471;-96
2021/03/15 02:06:41;;;;;;;21.27;12.43;;;-0.70;99.90;;;;;;4930640;29;20431;-96
2021/03/15 02:10:06;;;;;;;;;;;;;;;;;;;;;
2021/03/15 02:28:40;;;;;;;34.77;20.90;;;-0.80;99.90;;;;;;4628046;31;20473;-96
2021/03/15 02:31:46;;;;;;;25.75;13.02;;;-0.80;99.90;;;;;;4669126;30;20491;-96
2021/03/15 02:34:16;;;;;;;23.10;12.15;;;-0.80;99.90;;;;;;4692725;30;20451;-96
2021/03/15 02:37:13;;;;;;;22.85;13.25;;;-0.80;99.90;;;;;;4686688;30;20460;-96
2021/03/15 02:40:19;;;;;;;27.08;14.88;;;-0.70;99.90;;;;;;4692342;30;20455;-96
2021/03/15 02:43:01;;;;;;;27.30;15.13;;;-0.80;99.90;;;;;;4685769;30;20455;-96
2021/03/15 02:45:31;;;;;;;26.50;13.13;;;-0.80;99.90;;;;;;4670581;30;20455;-96
2021/03/15 02:48:03;;;;;;;26.92;13.57;;;-0.80;99.90;;;;;;4760278;30;20446;-94
2021/03/15 02:53:58;;;;;;;29.45;14.23;;;-0.90;99.90;;;;;;4696741;30;20804;-96
2021/03/15 02:56:55;;;;;;;42.22;19.58;;;-0.80;99.90;;;;;;4739323;30;20436;-96
2021/03/15 02:59:57;;;;;;;50.15;22.17;;;-0.80;99.90;;;;;;4794472;29;20500;-95
2021/03/15 03:02:43;;;;;;;29.73;14.18;;;-0.80;99.90;;;;;;4850644;29;20438;-96
2021/03/15 03:05:55;;;;;;;44.72;18.80;;;-0.80;99.90;;;;;;4802738;29;20528;-96
2021/03/15 03:08:51;;;;;;;34.78;16.00;;;-0.80;99.90;;;;;;4776264;30;20443;-95
2021/03/15 03:11:43;;;;;;;55.03;27.90;;;-0.80;99.90;;;;;;4761016;30;20474;-96
2021/03/15 03:14:40;;;;;;;;;;;;;;;;;;;;;
2021/03/15 03:17:55;;;;;;;51.13;25.25;;;-0.70;99.90;;;;;;5078626;23;20463;-96
2021/03/15 03:20:58;;;;;;;33.67;14.75;;;-0.80;99.90;;;;;;4883917;29;20444;-96
2021/03/15 03:23:30;;;;;;;52.60;25.02;;;-0.80;99.90;;;;;;4877894;29;21039;-94
2021/03/15 03:26:00;;;;;;;54.22;25.27;;;-0.90;99.90;;;;;;4864151;29;20520;-96
2021/03/15 03:28:28;;;;;;;58.03;27.20;;;-0.90;99.90;;;;;;4882521;29;20499;-96
2021/03/15 03:31:08;;;;;;;28.85;13.77;;;-0.90;99.90;;;;;;4867943;29;20460;-96
2021/03/15 03:33:36;;;;;;;43.92;20.13;;;-0.80;99.90;;;;;;4868412;29;20440;-95
2021/03/15 03:36:03;;;;;;;38.75;17.73;;;-0.80;99.90;;;;;;4867245;29;21028;-96
2021/03/15 03:38:39;;;;;;;60.38;27.77;;;-0.80;99.90;;;;;;4882157;29;20948;-95
2021/03/15 03:41:07;;;;;;;42.40;18.80;;;-0.80;99.90;;;;;;4882353;29;20432;-95
2021/03/15 03:43:33;;;;;;;37.83;16.60;;;-0.90;99.90;;;;;;4882416;29;20511;-95
2021/03/15 03:46:03;;;;;;;51.20;23.15;;;-0.80;99.90;;;;;;4867555;29;20497;-95
2021/03/15 03:48:39;;;;;;;69.57;26.80;;;-0.80;99.90;;;;;;4882990;29;20421;-96
2021/03/15 03:51:12;;;;;;;41.72;17.17;;;-0.90;99.90;;;;;;4886601;29;20525;-96
2021/03/15 03:53:51;;;;;;;64.63;28.10;;;-0.80;99.90;;;;;;4885997;29;20459;-96
2021/03/15 03:56:29;;;;;;;40.33;17.77;;;-0.80;99.90;;;;;;4870772;29;20500;-96
2021/03/15 03:58:59;;;;;;;40.03;17.40;;;-0.90;99.90;;;;;;4930157;29;20424;-96
2021/03/15 04:02:23;;;;;;;67.05;29.00;;;-0.80;99.90;;;;;;4929612;29;20518;-96
2021/03/15 04:05:06;;;;;;;45.42;18.75;;;-0.80;99.90;;;;;;4945565;29;20428;-96
2021/03/15 04:07:57;;;;;;;64.72;26.02;;;-0.80;99.90;;;;;;4953648;23;20447;-95
2021/03/15 04:11:06;;;;;;;69.95;24.65;;;-0.80;99.90;;;;;;4925640;29;20435;-95
2021/03/15 04:14:33;;;;;;;;;;;;;;;;;;;;;
2021/03/15 04:17:37;;;;;;;379.85;41.25;;;-0.80;99.90;;;;;;4919477;29;20488;-96
2021/03/15 04:56:41;;;;;;;1926.70;105.93;;;-0.60;99.90;;;;;;6357995;22;20372;-96
2021/03/15 04:59:47;;;;;;;1130.38;67.22;;;-0.60;99.90;;;;;;6273559;22;20397;-96
2021/03/15 05:02:28;;;;;;;878.73;59.40;;;-0.70;99.90;;;;;;6264097;22;20369;-95
2021/03/15 05:05:00;;;;;;;1999.90;129.02;;;-0.70;99.90;;;;;;6293347;22;20390;-96
2021/03/15 05:15:42;;;;;;;1999.90;148.73;;;-0.70;99.90;;;;;;6085185;23;20405;-96
2021/03/15 05:18:42;;;;;;;1999.90;100.53;;;-0.80;99.90;;;;;;6062099;23;20448;-95
2021/03/15 05:24:34;;;;;;;1999.90;141.45;;;-0.70;99.90;;;;;;6323190;22;20386;-95
2021/03/15 05:27:41;;;;;;;;;;;;;;;;;;;;;
2021/03/15 05:31:17;;;;;;;1677.43;63.13;;;-0.70;99.90;;;;;;6276499;22;20385;-95
2021/03/15 05:33:47;;;;;;;1999.90;105.30;;;-0.80;99.90;;;;;;6288852;22;20387;-96
2021/03/15 05:36:37;;;;;;;1484.95;60.88;;;-0.80;99.90;;;;;;6257639;22;20397;-96
2021/03/15 05:42:21;;;;;;;1943.85;83.13;;;-0.70;99.90;;;;;;6286684;22;20751;-95
2021/03/15 05:44:59;;;;;;;1719.20;79.85;;;-0.70;99.90;;;;;;6261897;22;20384;-96
2021/03/15 05:52:08;;;;;;;723.03;34.70;;;-0.60;99.90;;;;;;6131331;23;20439;-96
2021/03/15 06:50:01;;;;;;;80.80;29.90;;;-0.40;99.90;;;;;;6285458;22;20401;-93
2021/03/15 06:52:54;;;;;;;84.88;30.83;;;-0.20;99.90;;;;;;6312007;22;20431;-94
2021/03/15 06:55:26;;;;;;;54.42;20.83;;;-0.40;99.90;;;;;;6311668;22;20449;-94
2021/03/15 06:57:53;;;;;;;103.32;35.97;;;-0.30;99.90;;;;;;6311860;22;20377;-94
2021/03/15 07:00:34;;;;;;;115.70;42.33;;;-0.30;99.90;;;;;;6311584;22;20381;-94
2021/03/15 07:03:07;;;;;;;36.30;14.10;;;-0.30;99.90;;;;;;6312056;22;20377;-93
2021/03/15 07:05:55;;;;;;;56.97;22.48;;;-0.30;99.90;;;;;;6315193;22;20377;-94
2021/03/15 07:08:33;;;;;;;;;;;;;;;;;;;;;
2021/03/15 07:11:26;;;;;;;56.90;22.92;;;-0.20;99.90;;;;;;6340052;22;20376;-95
2021/03/15 07:13:55;;;;;;;47.30;21.42;;;-0.10;99.90;;;;;;6311113;22;20478;-94
2021/03/15 07:16:38;;;;;;;50.00;21.80;;;-0.10;99.90;;;;;;6315518;22;20387;-93
2021/03/15 07:46:42;;;;;;;42.07;21.93;;;0.00;99.90;;;;;;6302635;22;20390;-96
2021/03/15 07:49:23;;;;;;;46.70;26.08;;;0.10;99.90;;;;;;6288768;22;20408;-96
2021/03/15 07:52:16;;;;;;;36.42;22.10;;;0.10;99.90;;;;;;6285585;22;20383;-94
2021/03/15 07:54:47;;;;;;;26.53;14.57;;;0.10;99.90;;;;;;6285869;22;20858;-94
2021/03/15 07:57:27;;;;;;;25.80;14.75;;;0.10;99.90;;;;;;6292617;22;20379;-96
2021/03/15 08:00:06;;;;;;;25.80;15.00;;;0.20;99.90;;;;;;6290933;22;20410;-96
2021/03/15 08:02:36;;;;;;;23.35;14.40;;;0.30;99.90;;;;;;6286188;22;20382;-95
2021/03/15 08:05:09;;;;;;;28.10;15.27;;;0.50;99.90;;;;;;6287927;22;20406;-96
2021/03/15 08:07:39;;;;;;;10.73;5.85;;;0.40;99.90;;;;;;6282606;22;20420;-94
2021/03/15 08:10:10;;;;;;;24.48;15.38;;;0.40;99.90;;;;;;6256558;22;20844;-96
2021/03/15 08:12:45;;;;;;;24.05;14.27;;;0.40;99.90;;;;;;6218023;23;20833;-96
2021/03/15 08:29:09;;;;;;;24.10;14.75;;;0.50;99.90;;;;;;6264607;22;20375;-95
2021/03/15 08:32:15;;;;;;;;;;;;;;;;;;;;;
2021/03/15 08:34:44;;;;;;;18.52;11.13;;;0.60;99.90;;;;;;6315671;22;20398;-96
2021/03/15 08:37:12;;;;;;;19.50;12.40;;;0.50;99.90;;;;;;6258055;22;20378;-94
2021/03/15 08:39:54;;;;;;;18.33;10.47;;;0.60;99.90;;;;;;6283831;22;20784;-96
2021/03/15 08:42:33;;;;;;;15.02;7.65;;;0.70;99.90;;;;;;6290020;22;20441;-94
2021/03/15 08:45:30;;;;;;;14.13;8.43;;;0.80;99.90;;;;;;6289135;22;20382;-93
2021/03/15 08:48:02;;;;;;;8.88;4.95;;;0.90;99.90;;;;;;6286742;22;20469;-94
2021/03/15 08:53:40;;;;;;;10.52;5.75;;;0.80;99.90;;;;;;6307774;22;20465;-95
2021/03/15 08:56:28;;;;;;;16.13;8.35;;;0.60;99.90;;;;;;6215470;22;20396;-96
2021/03/15 08:59:00;;;;;;;11.10;6.65;;;0.70;99.90;;;;;;6289231;22;20388;-94
2021/03/15 09:02:03;;;;;;;7.97;5.00;;;0.70;99.90;;;;;;6268096;22;20377;-96
2021/03/15 09:04:56;;;;;;;13.23;7.50;;;0.80;99.90;;;;;;6293100;22;20368;-96
2021/03/15 09:07:46;;;;;;;8.70;4.57;;;0.80;99.90;;;;;;6269858;22;20407;-96
2021/03/15 09:10:34;;;;;;;9.35;5.15;;;0.90;99.90;;;;;;6291289;22;20384;-95
2021/03/15 10:10:08;;;;;;;9.93;5.80;;;1.90;99.90;;;;;;6295013;22;20353;-95
2021/03/15 11:58:34;;;;;;;4.25;1.77;;;5.00;95.50;;;;;;5934988;24;20428;-94
2021/03/15 12:01:49;;;;;;;4.53;2.13;;;5.30;94.40;;;;;;5953912;24;20443;-96
2021/03/15 12:09:04;;;;;;;;;;;;;;;;;;;;;
2021/03/15 12:14:17;;;;;;;6.43;2.85;;;5.30;86.20;;;;;;6307419;22;20398;-95
2021/03/15 12:17:05;;;;;;;6.72;2.85;;;5.00;93.60;;;;;;6284045;22;20432;-95
2021/03/15 12:23:10;;;;;;;7.55;3.42;;;4.40;91.40;;;;;;6300715;22;20377;-95
2021/03/15 12:29:20;;;;;;;7.30;3.65;;;4.20;94.70;;;;;;6162827;23;20388;-96
2021/03/15 12:32:21;;;;;;;21.00;8.20;;;3.90;94.50;;;;;;6185818;23;20398;-96
2021/03/15 12:35:42;;;;;;;11.55;3.95;;;3.60;97.20;;;;;;6133849;22;20423;-96
2021/03/15 12:48:18;;;;;;;8.32;4.07;;;2.90;99.90;;;;;;6308616;22;20382;-95
2021/03/15 15:20:28;;;;;;;11.70;6.00;;;1.90;99.90;;;;;;6305336;22;21252;31
